D/T METAR WX W/DIR W/SPE G/SPE TEMP DEWP
23/05/19 13:50 EGXW 231250Z 23007KT CAVOK 19/04 Q1015 BLU NOSIG SW (230°) 8.1mph 19°C 4°C
23/05/19 12:50 EGXW 231150Z 21007KT 9999 FEW048 SCT250 19/06 Q1015 BLU NOSIG SSW (210°) 8.1mph 19°C 6°C
23/05/19 11:50 EGXW 231050Z 21007KT 9999 FEW042 SCT250 18/06 Q1016 BLU NOSIG SSW (210°) 8.1mph 18°C 6°C
23/05/19 10:50 EGXW 230950Z 24007KT 9999 FEW036 BKN250 16/08 Q1016 BLU NOSIG WSW (240°) 8.1mph 16°C 8°C
23/05/19 09:50 EGXW 230850Z 25007KT 9999 FEW036 BKN250 15/07 Q1016 BLU NOSIG WSW (250°) 8.1mph 15°C 7°C
23/05/19 08:50 EGXW 230750Z 26005KT CAVOK 13/08 Q1016 BLU NOSIG W (260°) 5.8mph 13°C 8°C
23/05/19 07:50 EGXW 230650Z 24006KT CAVOK 12/07 Q1016 BLU NOSIG WSW (240°) 6.9mph 12°C 7°C
23/05/19 06:50 EGXW 230550Z 25005KT CAVOK 11/08 Q1016 BLU NOSIG WSW (250°) 5.8mph 11°C 8°C
23/05/19 05:50 EGXW 230450Z 25004KT CAVOK 10/08 Q1016 BLU WSW (250°) 4.6mph 10°C 8°C
23/05/19 04:50 EGXW 230350Z 23005KT CAVOK 09/07 Q1016 BLU SW (230°) 5.8mph 9°C 7°C
23/05/19 03:50 EGXW 230250Z 26004KT CAVOK 10/08 Q1016 BLU W (260°) 4.6mph 10°C 8°C
23/05/19 02:50 EGXW 230150Z 27003KT CAVOK 10/07 Q1017 BLU W (270°) 3.5mph 10°C 7°C
23/05/19 01:50 EGXW 230050Z AUTO 28003KT 9999 FEW100/// 11/08 Q1017 W (280°) 3.5mph 11°C 8°C
23/05/19 00:50 EGXW 222350Z AUTO 25003KT 9999 BKN100/// 12/08 Q1017 WSW (250°) 3.5mph 12°C 8°C
22/05/19 23:50 EGXW 222250Z 27004KT CAVOK 13/08 Q1017 BLU W (270°) 4.6mph 13°C 8°C
22/05/19 22:50 EGXW 222150Z 26004KT CAVOK 14/08 Q1017 BLU W (260°) 4.6mph 14°C 8°C
22/05/19 21:50 EGXW 222050Z 26004KT CAVOK 15/09 Q1017 BLU NOSIG W (260°) 4.6mph 15°C 9°C
22/05/19 20:50 EGXW 221950Z 27004KT CAVOK 15/09 Q1017 BLU NOSIG W (270°) 4.6mph 15°C 9°C
22/05/19 19:50 EGXW 221850Z 27005KT CAVOK 16/08 Q1017 BLU NOSIG W (270°) 5.8mph 16°C 8°C
22/05/19 18:50 EGXW 221750Z 27005KT 9999 FEW048 BKN070 BKN080 17/08 Q1017 BLU NOSIG W (270°) 5.8mph 17°C 8°C
22/05/19 17:50 EGXW 221650Z 27006KT 9999 FEW048 BKN079 BKN080 17/06 Q1017 BLU NOSIG W (270°) 6.9mph 17°C 6°C
22/05/19 16:50 EGXW 221550Z 25009KT 9999 FEW048 BKN070 18/06 Q1017 BLU NOSIG WSW (250°) 10.4mph 18°C 6°C
22/05/19 15:50 EGXW 221450Z 25010KT CAVOK 19/04 Q1017 BLU NOSIG WSW (250°) 11.5mph 19°C 4°C
22/05/19 14:50 EGXW 221350Z 23012KT CAVOK 18/05 Q1018 BLU NOSIG SW (230°) 13.8mph 18°C 5°C
22/05/19 13:50 EGXW 221250Z 24010KT 9999 SCT048 18/06 Q1018 BLU NOSIG WSW (240°) 11.5mph 18°C 6°C
22/05/19 12:50 EGXW 221150Z 23013KT 9999 FEW040 SCT070 16/06 Q1018 BLU NOSIG SW (230°) 15.0mph 16°C 6°C
22/05/19 11:50 EGXW 221050Z 22010KT 9999 FEW020 BKN070 13/08 Q1019 BLU NOSIG SW (220°) 11.5mph 13°C 8°C
22/05/19 10:50 EGXW 220950Z 24007KT 9999 FEW016 BKN070 11/07 Q1019 BLU NOSIG WSW (240°) 8.1mph 11°C 7°C
22/05/19 09:50 EGXW 220850Z 22009KT CAVOK 10/06 Q1019 BLU NOSIG SW (220°) 10.4mph 10°C 6°C
22/05/19 08:50 EGXW 220750Z 23009KT 9999 FEW016 BKN070 09/06 Q1019 BLU NOSIG SW (230°) 10.4mph 9°C 6°C
22/05/19 07:50 EGXW 220650Z 23007KT CAVOK 10/05 Q1019 BLU NOSIG SW (230°) 8.1mph 10°C 5°C
22/05/19 06:50 EGXW 220550Z 25006KT 9999 -RA BKN060 09/05 Q1019 BLU NOSIG -RA WSW (250°) 6.9mph 9°C 5°C
22/05/19 05:50 EGXW 220450Z 26006KT CAVOK 09/05 Q1019 BLU W (260°) 6.9mph 9°C 5°C
22/05/19 04:50 EGXW 220350Z 27006KT CAVOK 08/05 Q1019 BLU W (270°) 6.9mph 8°C 5°C
22/05/19 03:50 EGXW 220250Z AUTO 27007KT 9999 OVC180/// 09/05 Q1019 W (270°) 8.1mph 9°C 5°C
22/05/19 02:50 EGXW 220150Z AUTO 27006KT 9999 OVC180/// 09/04 Q1019 W (270°) 6.9mph 9°C 4°C
22/05/19 01:50 EGXW 220050Z 25005KT CAVOK 09/04 Q1019 BLU WSW (250°) 5.8mph 9°C 4°C
22/05/19 00:50 EGXW 212350Z 29006KT CAVOK 10/04 Q1019 BLU WNW (290°) 6.9mph 10°C 4°C
21/05/19 23:50 EGXW 212250Z 29006KT CAVOK 11/04 Q1019 BLU WNW (290°) 6.9mph 11°C 4°C
21/05/19 22:50 EGXW 212150Z 30005KT CAVOK 12/07 Q1019 BLU NOSIG WNW (300°) 5.8mph 12°C 7°C
21/05/19 21:50 EGXW 212050Z 26005KT CAVOK 13/06 Q1019 BLU NOSIG W (260°) 5.8mph 13°C 6°C
21/05/19 20:50 EGXW 211950Z 12007KT CAVOK 13/10 Q1019 BLU NOSIG ESE (120°) 8.1mph 13°C 10°C
21/05/19 19:50 EGXW 211850Z 09008KT 9999 FEW022 15/11 Q1018 BLU NOSIG E (90°) 9.2mph 15°C 11°C
21/05/19 18:50 EGXW 211750Z 31008KT CAVOK 19/05 Q1018 BLU NOSIG NW (310°) 9.2mph 19°C 5°C
21/05/19 17:50 EGXW 211650Z 32010KT CAVOK 19/05 Q1018 BLU NOSIG NW (320°) 11.5mph 19°C 5°C
21/05/19 16:50 EGXW 211550Z 30008KT CAVOK 19/06 Q1017 BLU NOSIG WNW (300°) 9.2mph 19°C 6°C
21/05/19 15:50 EGXW 211450Z 31008KT CAVOK 20/05 Q1017 BLU NOSIG NW (310°) 9.2mph 20°C 5°C
21/05/19 14:50 EGXW 211350Z 33008KT 9999 SCT048 18/07 Q1018 BLU NOSIG NNW (330°) 9.2mph 18°C 7°C